createdAt,value
2022-12-15T00:00:10.948Z,16.65
2022-12-15T00:02:52.594Z,17.70
2022-12-15T00:05:34.176Z,15.80
2022-12-15T00:08:15.340Z,16.13
2022-12-15T00:10:56.848Z,17.75
2022-12-15T00:13:37.870Z,16.50
2022-12-15T00:16:19.391Z,17.05
2022-12-15T00:19:01.420Z,16.77
2022-12-15T00:21:43.129Z,16.90
2022-12-15T00:24:24.584Z,16.77
2022-12-15T00:27:05.569Z,16.67
2022-12-15T00:29:47.064Z,15.73
2022-12-15T00:32:28.512Z,15.38
2022-12-15T00:35:09.765Z,14.97
2022-12-15T00:37:51.203Z,16.48
2022-12-15T00:40:13.986Z,15.70
2022-12-15T00:42:36.660Z,15.93
2022-12-15T00:44:59.643Z,15.63
2022-12-15T00:47:22.464Z,15.73
2022-12-15T00:50:03.971Z,15.38
2022-12-15T00:52:45.425Z,15.38
2022-12-15T00:55:26.901Z,15.77
2022-12-15T00:58:08.429Z,15.40
2022-12-15T01:00:49.821Z,16.23
2022-12-15T01:03:32.880Z,15.73
2022-12-15T01:06:14.851Z,16.15
2022-12-15T01:08:55.646Z,15.32
2022-12-15T01:11:36.820Z,14.70
2022-12-15T01:14:18.310Z,16.07
2022-12-15T01:16:59.763Z,15.32
2022-12-15T01:19:41.305Z,16.02
2022-12-15T01:22:05.830Z,15.63
2022-12-15T01:24:28.376Z,15.95
2022-12-15T01:26:50.991Z,14.77
2022-12-15T01:29:13.538Z,15.43
2022-12-15T01:31:36.761Z,15.18
2022-12-15T01:33:59.417Z,16.60
2022-12-15T01:36:21.998Z,15.43
2022-12-15T01:38:49.297Z,15.17
2022-12-15T01:41:14.977Z,15.55
2022-12-15T01:43:39.337Z,15.25
2022-12-15T01:46:31.088Z,16.15
2022-12-15T01:49:20.597Z,14.68
2022-12-15T01:51:47.554Z,15.17
2022-12-15T01:54:15.365Z,15.48
2022-12-15T01:56:41.637Z,15.55
2022-12-15T01:59:07.205Z,15.05
2022-12-15T02:01:29.974Z,15.32
2022-12-15T02:03:52.656Z,14.70
2022-12-15T02:06:16.734Z,15.88
2022-12-15T02:08:40.883Z,15.77
2022-12-15T02:11:25.648Z,15.68
2022-12-15T02:14:02.326Z,15.95
2022-12-15T02:16:46.172Z,15.17
2022-12-15T02:19:48.448Z,15.13
2022-12-15T02:22:40.503Z,14.50
2022-12-15T02:25:35.022Z,15.88
2022-12-15T02:28:22.716Z,15.38
2022-12-15T02:31:32.929Z,15.03
2022-12-15T02:34:06.017Z,15.38
2022-12-15T02:36:41.284Z,15.75
2022-12-15T02:39:05.777Z,15.73
2022-12-15T02:41:38.685Z,15.20
2022-12-15T02:44:05.191Z,14.70
2022-12-15T02:46:54.391Z,15.50
2022-12-15T02:49:51.557Z,14.05
2022-12-15T02:52:35.497Z,14.60
2022-12-15T02:55:30.536Z,15.60
2022-12-15T02:58:04.971Z,15.27
2022-12-15T03:00:30.495Z,15.20
2022-12-15T03:02:55.634Z,14.40
2022-12-15T03:05:20.202Z,15.35
2022-12-15T03:07:43.004Z,15.32
2022-12-15T03:10:07.048Z,16.83
2022-12-15T03:12:29.783Z,17.13
2022-12-15T03:14:52.408Z,16.25
2022-12-15T03:17:14.970Z,16.08
2022-12-15T03:19:37.774Z,15.50
2022-12-15T03:22:00.378Z,15.10
2022-12-15T03:24:23.264Z,15.10
2022-12-15T03:26:50.035Z,16.13
2022-12-15T03:29:13.116Z,16.33
2022-12-15T03:31:35.733Z,14.98
2022-12-15T03:33:58.369Z,15.20
2022-12-15T03:36:22.911Z,15.75
2022-12-15T03:38:45.443Z,16.95
2022-12-15T03:41:08.104Z,16.63
2022-12-15T03:43:31.195Z,16.55
2022-12-15T03:45:54.126Z,15.17
2022-12-15T03:48:16.931Z,16.48
2022-12-15T03:50:39.670Z,15.73
2022-12-15T03:53:03.690Z,16.17
2022-12-15T03:55:28.904Z,15.75
2022-12-15T03:57:52.146Z,15.43
2022-12-15T04:00:15.792Z,16.33
2022-12-15T04:02:38.393Z,17.17
2022-12-15T04:05:01.050Z,15.98
2022-12-15T04:07:23.587Z,16.08
2022-12-15T04:09:46.207Z,16.07
2022-12-15T04:12:11.087Z,16.10
2022-12-15T04:14:33.691Z,16.52
2022-12-15T04:16:57.037Z,15.73
2022-12-15T04:19:38.016Z,16.10
2022-12-15T04:22:03.818Z,17.47
2022-12-15T04:24:45.424Z,16.90
2022-12-15T04:27:26.835Z,17.10
2022-12-15T04:30:08.309Z,17.58
2022-12-15T04:32:50.164Z,17.05
2022-12-15T04:35:31.610Z,17.00
2022-12-15T04:38:13.107Z,15.75
2022-12-15T04:40:54.443Z,17.13
2022-12-15T04:43:35.881Z,16.67
2022-12-15T04:46:17.156Z,16.83
2022-12-15T04:48:58.309Z,17.67
2022-12-15T04:51:39.360Z,16.58
2022-12-15T04:54:20.933Z,17.55
2022-12-15T04:57:01.692Z,16.77
2022-12-15T04:59:43.067Z,16.52
2022-12-15T05:02:24.163Z,17.50
2022-12-15T05:05:05.566Z,16.85
2022-12-15T05:07:46.454Z,16.60
2022-12-15T05:10:28.040Z,17.42
2022-12-15T05:13:09.393Z,16.75
2022-12-15T05:15:51.987Z,15.60
2022-12-15T05:18:33.572Z,16.83
2022-12-15T05:21:16.608Z,17.02
2022-12-15T05:23:57.692Z,16.80
2022-12-15T05:26:39.966Z,16.60
2022-12-15T05:29:21.912Z,17.33
2022-12-15T05:31:52.278Z,17.55
2022-12-15T05:34:16.382Z,17.25
2022-12-15T05:36:38.915Z,19.27
2022-12-15T05:39:01.601Z,21.77
2022-12-15T05:41:24.240Z,21.17
2022-12-15T05:43:47.144Z,20.38
2022-12-15T05:46:10.016Z,18.45
2022-12-15T05:48:32.756Z,19.40
2022-12-15T05:50:55.415Z,19.60
2022-12-15T05:53:17.987Z,21.33
2022-12-15T05:55:40.678Z,21.17
2022-12-15T05:58:03.227Z,22.52
2022-12-15T06:00:26.075Z,22.02
2022-12-15T06:02:49.872Z,22.25
2022-12-15T06:05:12.856Z,22.40
2022-12-15T06:07:36.320Z,21.80
2022-12-15T06:09:59.036Z,19.95
2022-12-15T06:12:21.630Z,20.17
2022-12-15T06:14:44.314Z,19.95
2022-12-15T06:17:07.067Z,20.57
2022-12-15T06:19:29.989Z,18.20
2022-12-15T06:21:52.681Z,19.23
2022-12-15T06:24:15.408Z,19.20
2022-12-15T06:26:39.978Z,20.27
2022-12-15T06:29:05.077Z,19.83
2022-12-15T06:31:28.619Z,21.00
2022-12-15T06:34:01.383Z,21.85
2022-12-15T06:36:25.497Z,21.95
2022-12-15T06:38:50.168Z,21.45
2022-12-15T06:41:15.970Z,21.50
2022-12-15T06:43:39.441Z,19.77
2022-12-15T06:46:03.039Z,19.90
2022-12-15T06:48:27.148Z,19.80
2022-12-15T06:50:50.699Z,20.98
2022-12-15T06:53:14.445Z,20.90
2022-12-15T06:55:37.242Z,22.25
2022-12-15T06:58:00.047Z,23.95
2022-12-15T07:00:23.801Z,21.17
2022-12-15T07:02:48.248Z,20.92
2022-12-15T07:05:12.855Z,20.33
2022-12-15T07:07:35.862Z,19.40
2022-12-15T07:09:58.513Z,21.08
2022-12-15T07:12:21.292Z,21.83
2022-12-15T07:14:47.515Z,21.40
2022-12-15T07:17:16.076Z,20.53
2022-12-15T07:19:38.788Z,20.65
2022-12-15T07:22:01.540Z,19.92
2022-12-15T07:24:24.186Z,19.50
2022-12-15T07:26:48.949Z,19.70
2022-12-15T07:29:12.036Z,20.37
2022-12-15T07:31:34.855Z,20.63
2022-12-15T07:34:00.680Z,19.58
2022-12-15T07:36:23.497Z,20.05
2022-12-15T07:38:50.809Z,19.58
2022-12-15T07:41:15.093Z,19.20
2022-12-15T07:43:38.477Z,18.95
2022-12-15T07:46:01.989Z,20.17
2022-12-15T07:48:25.054Z,20.83
2022-12-15T07:50:48.274Z,21.58
2022-12-15T07:53:13.473Z,21.07
2022-12-15T07:56:05.177Z,21.88
2022-12-15T07:58:19.085Z,21.15
2022-12-15T08:00:48.408Z,20.90
2022-12-15T08:03:11.972Z,21.38
2022-12-15T08:05:35.369Z,21.77
2022-12-15T08:08:01.069Z,22.45
2022-12-15T08:10:23.825Z,24.23
2022-12-15T08:12:46.519Z,24.23
2022-12-15T08:15:09.706Z,26.70
2022-12-15T08:17:32.475Z,23.33
2022-12-15T08:19:58.777Z,24.63
2022-12-15T08:22:21.648Z,24.33
2022-12-15T08:24:44.342Z,25.45
2022-12-15T08:27:08.433Z,24.50
2022-12-15T08:29:50.690Z,24.43
2022-12-15T08:32:14.886Z,22.10
2022-12-15T08:34:38.981Z,22.23
2022-12-15T08:37:02.046Z,22.77
2022-12-15T08:39:25.150Z,22.48
2022-12-15T08:41:48.561Z,19.70
2022-12-15T08:44:11.304Z,20.13
2022-12-15T08:46:34.766Z,19.42
2022-12-15T08:48:58.286Z,20.35
2022-12-15T08:51:22.885Z,19.60
2022-12-15T08:53:47.048Z,20.80
2022-12-15T08:56:13.249Z,19.80
2022-12-15T08:58:37.170Z,18.77
2022-12-15T09:01:23.728Z,20.90
2022-12-15T09:03:47.662Z,20.13
2022-12-15T09:06:15.788Z,20.97
2022-12-15T09:08:38.461Z,19.98
2022-12-15T09:11:02.203Z,22.25
2022-12-15T09:13:25.583Z,22.30
2022-12-15T09:16:14.485Z,21.83
2022-12-15T09:18:37.262Z,21.37
2022-12-15T09:21:04.937Z,19.13
2022-12-15T09:23:27.730Z,21.60
2022-12-15T09:25:51.488Z,21.17
2022-12-15T09:28:15.202Z,21.45
2022-12-15T09:30:37.993Z,20.70
2022-12-15T09:33:01.313Z,21.15
2022-12-15T09:35:27.089Z,20.83
2022-12-15T09:37:51.904Z,21.60
2022-12-15T09:40:14.676Z,19.73
2022-12-15T09:42:37.342Z,19.90
2022-12-15T09:45:03.502Z,18.85
2022-12-15T09:47:34.166Z,20.00
2022-12-15T09:50:04.658Z,19.10
2022-12-15T09:52:56.794Z,18.75
2022-12-15T09:55:33.313Z,18.03
2022-12-15T09:58:09.086Z,17.30
2022-12-15T10:01:09.120Z,19.27
2022-12-15T10:03:50.684Z,19.35
2022-12-15T10:06:28.326Z,18.63
2022-12-15T10:09:02.729Z,19.07
2022-12-15T10:11:31.646Z,19.90
2022-12-15T10:14:06.366Z,19.35
2022-12-15T10:17:09.580Z,18.92
2022-12-15T10:20:00.639Z,20.42
2022-12-15T10:22:26.602Z,21.23
2022-12-15T10:27:57.432Z,21.13
2022-12-15T10:30:20.833Z,23.08
2022-12-15T10:33:17.394Z,22.63
2022-12-15T10:35:42.128Z,22.00
2022-12-15T10:38:12.225Z,21.90
2022-12-15T10:40:52.032Z,21.83
2022-12-15T10:43:24.213Z,22.05
2022-12-15T10:45:47.825Z,23.08
2022-12-15T10:48:20.022Z,22.77
2022-12-15T10:50:42.790Z,22.58
2022-12-15T10:53:09.528Z,22.25
2022-12-15T10:55:42.130Z,22.05
2022-12-15T10:58:18.231Z,22.02
2022-12-15T11:00:40.935Z,21.87
2022-12-15T11:03:22.047Z,21.67
2022-12-15T11:05:55.906Z,21.83
2022-12-15T11:08:19.710Z,21.80
2022-12-15T11:11:17.958Z,21.67
2022-12-15T11:13:41.963Z,21.60
2022-12-15T11:16:16.875Z,20.95
2022-12-15T11:18:48.845Z,22.17
2022-12-15T11:21:39.502Z,22.70
2022-12-15T11:24:16.014Z,22.65
2022-12-15T11:26:45.347Z,22.50
2022-12-15T11:29:24.627Z,21.02
2022-12-15T11:31:48.988Z,21.92
2022-12-15T11:34:39.870Z,23.52
2022-12-15T11:37:17.964Z,22.05
2022-12-15T11:39:51.880Z,22.33
2022-12-15T11:42:17.109Z,22.02
2022-12-15T11:44:54.112Z,22.20
2022-12-15T11:47:45.054Z,22.65
2022-12-15T11:50:36.921Z,20.77
2022-12-15T11:53:17.509Z,22.07
2022-12-15T11:56:07.217Z,21.30
2022-12-15T11:59:12.454Z,24.00
2022-12-15T12:02:04.431Z,22.02
2022-12-15T12:04:43.328Z,20.80
2022-12-15T12:07:29.015Z,21.77
2022-12-15T12:10:16.867Z,21.10
2022-12-15T12:12:46.867Z,20.65
2022-12-15T12:15:13.195Z,23.17
2022-12-15T12:17:46.111Z,22.85
2022-12-15T12:20:17.492Z,22.23
2022-12-15T12:23:02.497Z,21.65
2022-12-15T12:25:26.204Z,21.00
2022-12-15T12:28:03.853Z,22.95
2022-12-15T12:30:35.184Z,22.85
2022-12-15T12:33:06.560Z,23.20
2022-12-15T12:35:47.296Z,23.10
2022-12-15T12:38:13.164Z,22.42
2022-12-15T12:41:17.327Z,23.05
2022-12-15T12:43:51.165Z,23.90
2022-12-15T12:46:16.784Z,23.53
2022-12-15T12:48:51.042Z,23.45
2022-12-15T12:51:38.869Z,25.50
2022-12-15T12:54:10.717Z,22.08
2022-12-15T12:56:42.568Z,23.90
2022-12-15T12:59:28.376Z,25.10
2022-12-15T13:01:51.344Z,25.73
2022-12-15T13:04:29.769Z,24.58
2022-12-15T13:06:55.489Z,24.67
2022-12-15T13:09:19.108Z,25.85
2022-12-15T13:12:14.942Z,26.00
2022-12-15T13:14:46.731Z,26.40
2022-12-15T13:17:37.531Z,25.67
2022-12-15T13:20:03.195Z,27.67
2022-12-15T13:22:34.361Z,26.42
2022-12-15T13:24:57.794Z,27.00
2022-12-15T13:27:21.963Z,26.98
2022-12-15T13:30:02.734Z,26.60
2022-12-15T13:32:36.734Z,27.98
2022-12-15T13:35:21.614Z,28.80
2022-12-15T13:38:07.460Z,30.30
2022-12-15T13:40:33.760Z,26.63
2022-12-15T13:43:10.012Z,29.63
2022-12-15T13:45:37.895Z,28.85
2022-12-15T13:48:00.985Z,28.67
2022-12-15T13:50:32.320Z,27.57
2022-12-15T13:58:39.785Z,27.25
2022-12-15T14:01:03.827Z,29.67
2022-12-15T14:03:26.892Z,28.60
2022-12-15T14:05:55.264Z,28.30
2022-12-15T14:08:18.801Z,28.70
2022-12-15T14:10:44.447Z,29.23
2022-12-15T14:13:43.314Z,29.48
2022-12-15T14:16:21.215Z,29.97
2022-12-15T14:18:45.463Z,29.83
2022-12-15T14:21:21.814Z,30.77
2022-12-15T14:24:19.149Z,29.80
2022-12-15T14:26:30.999Z,30.13
2022-12-15T14:29:01.590Z,30.93
2022-12-15T14:31:25.456Z,29.80
2022-12-15T14:33:53.612Z,31.67
2022-12-15T14:36:19.530Z,31.35
2022-12-15T14:38:50.744Z,31.35
2022-12-15T14:41:26.433Z,31.50
2022-12-15T14:44:31.248Z,29.48
2022-12-15T14:46:33.496Z,32.83
2022-12-15T14:48:59.576Z,33.03
2022-12-15T14:51:25.455Z,33.28
2022-12-15T14:53:53.448Z,32.53
2022-12-15T14:56:29.374Z,33.92
2022-12-15T14:58:59.906Z,34.90
2022-12-15T15:01:56.274Z,34.67
2022-12-15T15:03:05.714Z,28.35
2022-12-15T15:04:25.679Z,33.58
2022-12-15T15:06:54.802Z,34.80
2022-12-15T15:09:27.116Z,33.25
2022-12-15T15:12:04.185Z,34.65
2022-12-15T15:14:29.715Z,32.88
2022-12-15T15:17:14.655Z,35.22
2022-12-15T15:19:40.031Z,36.17
2022-12-15T15:22:03.550Z,36.17
2022-12-15T15:24:32.137Z,37.42
2022-12-15T15:26:54.920Z,38.17
2022-12-15T15:29:36.307Z,36.63
2022-12-15T15:32:25.957Z,38.30
2022-12-15T15:34:49.320Z,38.03
2022-12-15T15:37:23.818Z,36.90
2022-12-15T15:39:51.383Z,35.92
2022-12-15T15:42:13.975Z,36.25
2022-12-15T15:44:36.520Z,35.93
2022-12-15T15:46:59.232Z,34.67
2022-12-15T15:49:23.509Z,34.97
2022-12-15T15:51:46.253Z,33.88
2022-12-15T15:54:14.934Z,33.45
2022-12-15T15:56:37.602Z,34.40
2022-12-15T15:59:09.363Z,34.60
2022-12-15T16:01:32.274Z,34.83
2022-12-15T16:03:54.977Z,35.22
2022-12-15T16:06:20.711Z,33.78
2022-12-15T16:08:44.063Z,35.50
2022-12-15T16:11:12.114Z,33.17
2022-12-15T16:13:34.704Z,35.58
2022-12-15T16:15:57.351Z,34.60
2022-12-15T16:18:21.240Z,35.03
2022-12-15T16:20:47.247Z,36.43
2022-12-15T16:23:17.135Z,36.00
2022-12-15T16:25:50.621Z,35.45
2022-12-15T16:28:22.212Z,36.08
2022-12-15T16:30:45.606Z,34.42
2022-12-15T16:33:08.257Z,35.57
2022-12-15T16:35:30.958Z,34.65
2022-12-15T16:37:53.855Z,36.30
2022-12-15T16:40:22.559Z,34.60
2022-12-15T16:42:53.381Z,34.15
2022-12-15T16:45:18.236Z,34.37
2022-12-15T16:47:40.870Z,31.65
2022-12-15T16:50:04.658Z,34.60
2022-12-15T16:52:27.504Z,35.08
2022-12-15T16:54:50.669Z,34.47
2022-12-15T16:57:14.960Z,36.83
2022-12-15T16:59:37.586Z,37.03
2022-12-15T17:02:00.868Z,37.65
2022-12-15T17:04:25.892Z,36.00
2022-12-15T17:06:51.192Z,36.67
2022-12-15T17:09:20.799Z,35.40
2022-12-15T17:11:45.271Z,37.75
2022-12-15T17:14:10.308Z,36.05
2022-12-15T17:16:32.919Z,37.85
2022-12-15T17:18:55.630Z,37.35
2022-12-15T17:21:21.153Z,37.80
2022-12-15T17:23:47.337Z,35.17
2022-12-15T17:26:28.753Z,35.03
2022-12-15T17:28:54.064Z,35.28
2022-12-15T17:31:19.154Z,32.40
2022-12-15T17:33:41.855Z,31.80
2022-12-15T17:36:15.000Z,30.75
2022-12-15T17:38:39.990Z,30.63
2022-12-15T17:41:02.732Z,32.50
2022-12-15T17:43:32.080Z,28.17
2022-12-15T17:45:58.131Z,28.87
2022-12-15T17:48:21.880Z,27.80
2022-12-15T17:50:50.052Z,27.58
2022-12-15T17:53:13.725Z,28.70
2022-12-15T17:55:36.463Z,26.58
2022-12-15T17:57:59.997Z,26.10
2022-12-15T18:00:25.934Z,26.20
2022-12-15T18:02:49.220Z,24.60
2022-12-15T18:05:16.104Z,26.02
2022-12-15T18:07:38.925Z,25.38
2022-12-15T18:10:02.057Z,24.33
2022-12-15T18:12:26.950Z,25.45
2022-12-15T18:14:50.003Z,24.25
2022-12-15T18:17:12.620Z,24.02
2022-12-15T18:19:35.686Z,23.77
2022-12-15T18:21:58.690Z,22.23
2022-12-15T18:24:21.723Z,23.58
2022-12-15T18:26:45.193Z,23.08
2022-12-15T18:29:18.070Z,23.25
2022-12-15T18:31:41.907Z,22.05
2022-12-15T18:34:13.423Z,24.23
2022-12-15T18:36:36.336Z,22.77
2022-12-15T18:38:59.196Z,23.30
2022-12-15T18:41:21.901Z,23.27
2022-12-15T18:43:46.405Z,24.75
2022-12-15T18:46:16.737Z,22.07
2022-12-15T18:48:40.247Z,22.42
2022-12-15T18:51:14.540Z,23.05
2022-12-15T18:53:37.274Z,22.02
2022-12-15T18:56:01.816Z,22.20
2022-12-15T18:58:30.161Z,22.47
2022-12-15T19:00:54.194Z,21.67
2022-12-15T19:03:17.712Z,21.25
2022-12-15T19:05:41.008Z,20.92
2022-12-15T19:08:17.050Z,19.35
2022-12-15T19:10:52.260Z,20.10
2022-12-15T19:13:17.147Z,20.02
2022-12-15T19:15:40.135Z,18.98
2022-12-15T19:18:22.063Z,20.48
2022-12-15T19:21:03.203Z,21.15
2022-12-15T19:23:26.252Z,22.43
2022-12-15T19:25:49.863Z,22.23
2022-12-15T19:28:20.146Z,21.40
2022-12-15T19:30:43.733Z,22.88
2022-12-15T19:33:06.875Z,22.63
2022-12-15T19:35:29.938Z,23.57
2022-12-15T19:37:55.670Z,21.35
2022-12-15T19:40:25.191Z,21.58
2022-12-15T19:42:48.849Z,23.25
2022-12-15T19:45:17.359Z,22.00
2022-12-15T19:47:40.233Z,20.53
2022-12-15T19:50:03.160Z,22.17
2022-12-15T19:52:27.248Z,21.42
2022-12-15T19:54:50.712Z,21.73
2022-12-15T19:57:15.714Z,20.38
2022-12-15T19:59:38.672Z,21.87
2022-12-15T20:02:01.581Z,21.20
2022-12-15T20:04:24.699Z,20.98
2022-12-15T20:06:48.008Z,22.65
2022-12-15T20:09:15.546Z,20.80
2022-12-15T20:11:38.879Z,21.00
2022-12-15T20:14:02.744Z,20.23
2022-12-15T20:16:25.351Z,18.30
2022-12-15T20:18:50.515Z,20.10
2022-12-15T20:21:16.841Z,17.88
2022-12-15T20:23:58.399Z,19.13
2022-12-15T20:26:21.624Z,18.45
2022-12-15T20:28:44.282Z,18.45
2022-12-15T20:31:07.148Z,21.00
2022-12-15T20:33:30.141Z,19.00
2022-12-15T20:35:53.873Z,19.87
2022-12-15T20:38:33.942Z,20.33
2022-12-15T20:40:57.035Z,20.85
2022-12-15T20:43:21.367Z,21.52
2022-12-15T20:45:46.392Z,19.83
2022-12-15T20:48:13.563Z,18.87
2022-12-15T20:50:41.075Z,19.88
2022-12-15T20:53:04.405Z,19.75
2022-12-15T20:55:27.796Z,18.83
2022-12-15T20:57:50.992Z,20.48
2022-12-15T21:00:14.212Z,20.73
2022-12-15T21:02:36.939Z,19.55
2022-12-15T21:04:59.814Z,19.85
2022-12-15T21:07:22.827Z,18.60
2022-12-15T21:09:45.579Z,18.00
2022-12-15T21:12:19.638Z,20.27
2022-12-15T21:14:42.166Z,18.38
2022-12-15T21:17:04.871Z,18.30
2022-12-15T21:19:29.475Z,15.57
2022-12-15T21:21:55.167Z,18.65
2022-12-15T21:24:22.985Z,17.83
2022-12-15T21:26:46.869Z,16.80
2022-12-15T21:29:14.264Z,17.33
2022-12-15T21:31:36.823Z,16.48
2022-12-15T21:33:59.886Z,17.30
2022-12-15T21:36:22.554Z,17.30
2022-12-15T21:38:47.575Z,18.02
2022-12-15T21:41:14.588Z,16.13
2022-12-15T21:43:37.269Z,16.25
2022-12-15T21:46:01.156Z,16.25
2022-12-15T21:48:42.733Z,16.20
2022-12-15T21:51:05.572Z,15.73
2022-12-15T21:53:28.148Z,16.08
2022-12-15T21:55:50.804Z,15.43
2022-12-15T21:58:24.206Z,16.67
2022-12-15T22:00:47.207Z,16.03
2022-12-15T22:03:10.166Z,15.50
2022-12-15T22:05:33.096Z,15.85
2022-12-15T22:07:57.461Z,16.35
2022-12-15T22:10:41.493Z,15.18
2022-12-15T22:13:04.220Z,16.70
2022-12-15T22:15:29.007Z,15.45
2022-12-15T22:17:52.425Z,17.13
2022-12-15T22:20:20.840Z,16.60
2022-12-15T22:22:43.653Z,16.98
2022-12-15T22:25:07.158Z,16.87
2022-12-15T22:27:33.836Z,17.45
2022-12-15T22:29:57.032Z,17.25
2022-12-15T22:32:19.656Z,17.77
2022-12-15T22:34:42.524Z,17.17
2022-12-15T22:37:05.272Z,18.30
2022-12-15T22:39:28.379Z,18.33
2022-12-15T22:41:51.829Z,18.60
2022-12-15T22:44:27.365Z,18.30
2022-12-15T22:46:51.542Z,17.52
2022-12-15T22:49:17.662Z,19.03
2022-12-15T22:51:41.205Z,16.92
2022-12-15T22:54:18.106Z,15.82
2022-12-15T22:56:40.911Z,17.35
2022-12-15T22:59:08.965Z,17.10
2022-12-15T23:01:31.743Z,17.27
2022-12-15T23:03:54.508Z,16.52
2022-12-15T23:06:19.146Z,17.33
2022-12-15T23:08:41.851Z,17.17
2022-12-15T23:11:23.364Z,17.98
2022-12-15T23:13:46.039Z,16.33
2022-12-15T23:16:24.077Z,17.35
2022-12-15T23:18:54.750Z,16.10
2022-12-15T23:21:17.742Z,16.40
2022-12-15T23:23:40.643Z,17.35
2022-12-15T23:26:05.018Z,16.77
2022-12-15T23:28:27.928Z,16.17
2022-12-15T23:30:51.832Z,17.20
2022-12-15T23:33:16.470Z,15.15
2022-12-15T23:35:40.716Z,14.25
2022-12-15T23:38:03.337Z,15.20
2022-12-15T23:40:25.887Z,15.88
2022-12-15T23:42:49.835Z,14.98
2022-12-15T23:45:17.474Z,14.60
2022-12-15T23:47:40.747Z,13.23
2022-12-15T23:50:03.923Z,13.17
2022-12-15T23:52:28.751Z,12.77
2022-12-15T23:54:51.324Z,13.45
2022-12-15T23:57:14.874Z,13.48
2022-12-15T23:59:37.576Z,13.80
